Time;durP1;ratioP1;P1;durP2;ratioP2;P2;SDS_P1;SDS_P2;PMS_P1;PMS_P2;Temp;Humidity;BMP_temperature;BMP_pressure;BME280_temperature;BME280_humidity;BME280_pressure;Samples;Min_cycle;Max_cycle;Signal;HPM_P1;HPM_P2
2023/04/02 00:03:09;;;;;;;12.05;3.58;;;;;;;2.90;100.00;101388.66;10376460;28;20106;-72
2023/04/02 00:08:27;;;;;;;9.45;3.70;;;;;;;2.67;100.00;101405.13;10360178;28;20052;-74
2023/04/02 00:13:28;;;;;;;7.47;3.67;;;;;;;2.48;100.00;101421.97;10375661;28;20038;-72
2023/04/02 00:18:28;;;;;;;8.00;4.03;;;;;;;2.31;100.00;101437.63;10404343;28;20040;-73
2023/04/02 00:23:29;;;;;;;10.27;4.50;;;;;;;2.18;100.00;101447.25;10399710;28;20125;-72
2023/04/02 00:28:30;;;;;;;10.05;3.50;;;;;;;2.09;100.00;101451.09;10416202;28;20060;-72
2023/04/02 00:33:30;;;;;;;8.27;3.83;;;;;;;1.94;100.00;101461.06;10414572;28;20036;-73
2023/04/02 00:38:32;;;;;;;7.70;3.05;;;;;;;1.88;100.00;101469.94;10408228;28;20112;-72
2023/04/02 00:43:36;;;;;;;9.18;3.78;;;;;;;1.80;100.00;101484.44;10399170;28;20531;-73
2023/04/02 00:48:41;;;;;;;7.45;4.05;;;;;;;1.38;100.00;101440.44;10358688;28;20045;-72
2023/04/02 00:53:44;;;;;;;7.65;3.08;;;;;;;1.54;100.00;101490.22;10358214;28;20049;-73
2023/04/02 00:58:45;;;;;;;7.47;4.30;;;;;;;1.54;100.00;101511.94;10342177;28;20125;-72
2023/04/02 01:03:56;;;;;;;9.45;2.95;;;;;;;1.44;100.00;101519.44;10357434;28;20107;-72
2023/04/02 01:09:24;;;;;;;6.53;3.20;;;;;;;1.36;100.00;101523.88;10381637;28;20037;-72
2023/04/02 01:14:40;;;;;;;6.30;3.15;;;;;;;1.31;100.00;101534.44;10414090;28;20038;-72
2023/04/02 01:20:21;;;;;;;10.52;3.42;;;;;;;1.21;100.00;101544.66;10415622;28;20041;-72
2023/04/02 01:25:25;;;;;;;4.88;3.13;;;;;;;0.72;100.00;101486.03;10413233;28;20045;-72
2023/04/02 01:30:26;;;;;;;7.35;3.22;;;;;;;1.09;100.00;101562.34;10382159;28;20496;-72
2023/04/02 01:35:26;;;;;;;6.68;3.40;;;;;;;1.10;100.00;101574.88;10415623;28;20095;-72
2023/04/02 01:40:33;;;;;;;7.93;3.30;;;;;;;0.98;100.00;101588.81;10413533;28;20383;-72
2023/04/02 01:45:34;;;;;;;7.03;2.70;;;;;;;0.90;100.00;101586.13;10395939;28;20120;-72
2023/04/02 01:50:38;;;;;;;5.85;2.92;;;;;;;0.88;100.00;101601.72;10396886;28;20068;-72
2023/04/02 01:55:40;;;;;;;7.30;1.95;;;;;;;0.84;100.00;101616.63;10396574;28;20063;-72
2023/04/02 02:00:48;;;;;;;9.10;3.37;;;;;;;0.76;100.00;101630.19;10396906;28;20042;-71
2023/04/02 02:05:48;;;;;;;7.35;2.28;;;;;;;0.71;100.00;101624.44;10396788;28;20038;-72
2023/04/02 02:10:49;;;;;;;7.38;2.90;;;;;;;0.65;100.00;101634.09;10411116;28;20041;-72
2023/04/02 02:15:50;;;;;;;7.87;2.33;;;;;;;0.58;100.00;101652.91;10412138;28;20041;-71
2023/04/02 02:20:50;;;;;;;7.35;1.80;;;;;;;0.51;100.00;101656.44;10379734;28;20050;-72
2023/04/02 02:25:51;;;;;;;7.63;2.27;;;;;;;0.41;100.00;101651.19;10395169;28;20029;-72
2023/04/02 02:31:02;;;;;;;8.37;1.63;;;;;;;0.33;100.00;101653.91;10364089;28;20037;-72
2023/04/02 02:36:04;;;;;;;8.77;1.90;;;;;;;0.39;100.00;101674.91;10395188;28;20034;-73
2023/04/02 02:41:31;;;;;;;7.47;2.80;;;;;;;0.35;100.00;101678.94;10378329;28;20053;-72
2023/04/02 02:46:31;;;;;;;6.10;1.55;;;;;;;0.30;100.00;101705.72;10407033;28;20103;-72
2023/04/02 02:51:47;;;;;;;6.33;2.40;;;;;;;0.20;100.00;101706.69;10394478;28;20030;-72
2023/04/02 02:57:00;;;;;;;9.95;1.77;;;;;;;0.09;100.00;101712.41;10393847;28;20103;-72
2023/04/02 03:02:00;;;;;;;8.70;1.83;;;;;;;0.12;100.00;101732.91;10377885;28;20053;-72
2023/04/02 03:07:02;;;;;;;9.20;3.20;;;;;;;0.07;100.00;101738.81;10378072;28;20034;-72
2023/04/02 03:12:32;;;;;;;7.40;2.63;;;;;;;0.03;100.00;101745.56;10360751;28;20050;-72
2023/04/02 03:17:39;;;;;;;7.17;2.40;;;;;;;-0.05;100.00;101748.25;10345867;28;20057;-72
2023/04/02 03:22:56;;;;;;;3.47;1.23;;;;;;;-0.09;100.00;101763.94;10354908;28;20049;-72
2023/04/02 03:28:05;;;;;;;11.18;2.53;;;;;;;-0.13;100.00;101778.81;10353823;28;20088;-72
2023/04/02 03:33:28;;;;;;;2.97;1.47;;;;;;;-0.18;100.00;101789.31;10353775;28;20504;-73
2023/04/02 03:38:29;;;;;;;4.83;1.60;;;;;;;-0.23;100.00;101806.03;10347398;28;20053;-70
2023/04/02 03:43:39;;;;;;;3.43;1.70;;;;;;;-0.22;100.00;101815.00;10399860;28;20054;-73
2023/04/02 03:48:42;;;;;;;5.23;1.60;;;;;;;-0.28;100.00;101816.47;10376298;28;20046;-71
2023/04/02 03:53:43;;;;;;;6.33;2.03;;;;;;;-0.28;100.00;101834.56;10377011;28;20034;-72
2023/04/02 03:58:45;;;;;;;4.37;1.20;;;;;;;-0.30;100.00;101859.06;10378449;28;20034;-71
2023/04/02 04:03:49;;;;;;;3.37;1.23;;;;;;;-0.28;100.00;101859.75;10375846;28;20136;-73
2023/04/02 04:08:54;;;;;;;6.60;1.60;;;;;;;-0.29;100.00;101871.59;10359447;28;20038;-71
2023/04/02 04:13:58;;;;;;;5.00;1.30;;;;;;;-0.32;100.00;101868.38;10377312;28;20506;-72
2023/04/02 04:19:03;;;;;;;9.33;1.30;;;;;;;-0.38;100.00;101872.53;10359672;28;20037;-72
2023/04/02 04:24:21;;;;;;;6.20;1.60;;;;;;;-0.41;100.00;101883.69;10359389;28;20030;-72
2023/04/02 04:29:53;;;;;;;6.00;1.53;;;;;;;-0.36;100.00;101908.41;10375481;28;20257;-74
2023/04/02 04:34:56;;;;;;;6.20;1.50;;;;;;;-0.35;100.00;101922.78;10372969;28;20092;-72
2023/04/02 04:40:20;;;;;;;3.77;1.70;;;;;;;-0.43;100.00;101913.59;10359896;28;20038;-71
2023/04/02 04:45:32;;;;;;;5.80;1.37;;;;;;;-0.46;100.00;101938.25;10405046;28;20125;-71
2023/04/02 04:50:46;;;;;;;3.53;1.60;;;;;;;-0.51;100.00;101942.44;10416271;28;20052;-71
2023/04/02 04:55:48;;;;;;;7.10;1.60;;;;;;;-0.60;100.00;101944.19;10412029;28;20036;-72
2023/04/02 05:01:18;;;;;;;5.70;1.63;;;;;;;-0.59;100.00;101972.97;10373690;28;20042;-71
2023/04/02 05:06:38;;;;;;;5.30;1.80;;;;;;;-0.62;100.00;101982.25;10374620;28;20520;-71
2023/04/02 05:11:44;;;;;;;5.17;2.27;;;;;;;-0.62;100.00;101998.47;10401941;28;20041;-72
2023/04/02 05:16:50;;;;;;;5.00;2.13;;;;;;;-0.62;100.00;102014.69;10380632;28;20041;-71
2023/04/02 05:22:11;;;;;;;7.38;2.25;;;;;;;-0.61;100.00;102019.09;10381855;28;20045;-71
2023/04/02 05:27:20;;;;;;;11.90;1.70;;;;;;;-0.59;100.00;102026.22;10397180;28;20480;-72
2023/04/02 05:32:31;;;;;;;9.77;1.80;;;;;;;-0.56;100.00;102039.44;10363932;28;20397;-70
2023/04/02 05:37:32;;;;;;;6.27;1.80;;;;;;;-0.51;100.00;102061.47;10377262;28;20349;-71
2023/04/02 05:42:34;;;;;;;5.80;1.53;;;;;;;-0.49;100.00;102062.19;10379144;28;20057;-72
2023/04/02 05:47:39;;;;;;;4.83;1.60;;;;;;;-0.42;100.00;102082.19;10413215;28;20112;-73
2023/04/02 05:52:52;;;;;;;7.53;2.23;;;;;;;-0.30;100.00;102082.84;10414184;28;20064;-74
2023/04/02 05:57:58;;;;;;;6.87;2.23;;;;;;;-0.23;100.00;102092.91;10396061;28;20065;-72
2023/04/02 06:03:01;;;;;;;4.13;1.50;;;;;;;-0.16;100.00;102100.41;10372818;28;20052;-72
2023/04/02 06:08:10;;;;;;;3.80;1.47;;;;;;;-0.05;100.00;102111.00;10339112;28;20420;-72
2023/04/02 06:13:12;;;;;;;4.05;1.48;;;;;;;0.09;100.00;102107.75;10314331;28;20046;-72
2023/04/02 06:18:22;;;;;;;5.17;1.30;;;;;;;0.45;100.00;102117.69;10314777;28;20034;-72
2023/04/02 06:23:44;;;;;;;4.82;1.30;;;;;;;0.63;100.00;102128.53;10332622;28;20472;-73
2023/04/02 06:28:46;;;;;;;3.47;1.60;;;;;;;0.89;100.00;102153.78;10308622;28;20046;-73
2023/04/02 06:33:51;;;;;;;4.17;1.57;;;;;;;1.24;100.00;102168.25;10329994;28;20085;-72
2023/04/02 06:38:51;;;;;;;7.00;1.20;;;;;;;1.48;100.00;102169.38;10353382;28;20100;-72
2023/04/02 06:44:03;;;;;;;6.20;1.63;;;;;;;1.66;100.00;102183.72;10324382;28;20524;-72
2023/04/02 06:49:15;;;;;;;4.13;1.08;;;;;;;1.87;100.00;102185.16;10314975;28;20050;-72
2023/04/02 06:54:16;;;;;;;6.25;1.70;;;;;;;2.06;100.00;102206.59;10347449;28;20034;-72
2023/04/02 06:59:17;;;;;;;4.70;1.23;;;;;;;2.28;100.00;102202.41;10298386;28;20030;-71
2023/04/02 07:04:18;;;;;;;4.78;1.27;;;;;;;2.28;100.00;102215.16;10319121;28;20075;-72
2023/04/02 07:09:19;;;;;;;3.92;1.38;;;;;;;2.30;100.00;102219.38;10330324;28;20086;-72
2023/04/02 07:14:19;;;;;;;3.17;1.20;;;;;;;2.18;100.00;102205.25;10370737;28;20038;-71
2023/04/02 07:19:21;;;;;;;1.88;0.90;;;;;;;2.27;100.00;102213.44;10353076;28;20038;-71
2023/04/02 07:24:21;;;;;;;3.55;1.17;;;;;;;2.44;100.00;102234.19;10377478;28;20065;-71
2023/04/02 07:29:21;;;;;;;12.73;2.30;;;;;;;2.53;100.00;102252.22;10378767;28;20088;-71
2023/04/02 07:34:22;;;;;;;3.90;1.33;;;;;;;2.79;100.00;102249.38;10360801;28;20045;-67
2023/04/02 07:39:22;;;;;;;3.70;0.93;;;;;;;3.20;100.00;102262.09;10346342;28;20127;-71
2023/04/02 07:44:23;;;;;;;2.95;0.98;;;;;;;3.51;100.00;102261.38;10400263;28;20104;-71
2023/04/02 07:49:23;;;;;;;4.38;1.30;;;;;;;3.75;100.00;102264.03;10399315;28;20056;-71
2023/04/02 07:54:25;;;;;;;4.53;0.95;;;;;;;4.00;100.00;102247.59;10400272;28;20099;-72
2023/04/02 07:59:26;;;;;;;3.08;0.98;;;;;;;3.91;100.00;102252.22;10403663;28;20037;-71
2023/04/02 08:04:26;;;;;;;1.95;0.90;;;;;;;4.08;100.00;102252.16;10399888;28;20056;-71
2023/04/02 08:09:27;;;;;;;5.60;1.00;;;;;;;4.08;100.00;102269.34;10383430;28;21400;-70
2023/04/02 08:14:27;;;;;;;3.85;0.98;;;;;;;4.17;100.00;102264.72;10394811;28;20042;-71
2023/04/02 08:19:28;;;;;;;4.32;0.85;;;;;;;4.18;100.00;102286.34;10379945;28;20049;-71
2023/04/02 08:24:28;;;;;;;4.72;1.10;;;;;;;4.44;100.00;102291.50;10377078;28;20038;-70
2023/04/02 08:29:31;;;;;;;3.30;0.90;;;;;;;4.67;100.00;102304.31;10379546;28;20040;-70
2023/04/02 08:34:31;;;;;;;6.38;1.42;;;;;;;5.01;100.00;102311.25;10414384;28;20064;-70
2023/04/02 08:39:34;;;;;;;7.30;2.13;;;;;;;5.21;100.00;102317.09;10391739;28;20046;-70
2023/04/02 08:44:48;;;;;;;6.35;1.25;;;;;;;5.12;100.00;102305.34;10396265;28;20034;-70
2023/04/02 08:49:51;;;;;;;5.70;0.80;;;;;;;5.18;100.00;102314.69;10397826;28;20038;-71
2023/04/02 08:54:54;;;;;;;2.40;0.90;;;;;;;5.33;100.00;102317.47;10361675;28;20044;-70
2023/04/02 09:00:09;;;;;;;2.17;0.70;;;;;;;5.34;100.00;102314.56;10404811;28;20113;-70
2023/04/02 09:05:19;;;;;;;4.78;0.80;;;;;;;5.55;100.00;102315.75;10399400;28;20045;-69
2023/04/02 09:10:20;;;;;;;6.95;1.10;;;;;;;5.86;100.00;102335.56;10381249;28;20057;-70
2023/04/02 09:15:33;;;;;;;2.58;0.80;;;;;;;5.94;100.00;102344.72;10394048;28;20034;-70
2023/04/02 09:20:34;;;;;;;3.33;1.15;;;;;;;5.89;100.00;102338.97;10350295;28;20042;-70
2023/04/02 09:25:34;;;;;;;1.23;0.52;;;;;;;6.00;100.00;102347.59;10391014;28;20042;-71
2023/04/02 09:30:53;;;;;;;1.85;0.73;;;;;;;6.02;100.00;102345.50;10415876;28;20029;-70
2023/04/02 09:35:55;;;;;;;1.63;0.77;;;;;;;6.34;100.00;102359.00;10397381;28;20040;-71
2023/04/02 09:41:02;;;;;;;5.85;1.33;;;;;;;6.70;100.00;102363.66;10413544;28;20041;-70
2023/04/02 09:46:23;;;;;;;4.28;0.85;;;;;;;7.10;100.00;102375.91;10412457;28;20096;-71
2023/04/02 09:51:25;;;;;;;2.20;0.80;;;;;;;6.95;100.00;102329.41;10379147;28;20033;-71
2023/04/02 09:56:25;;;;;;;4.20;0.80;;;;;;;7.10;100.00;102381.38;10396755;28;20037;-70
2023/04/02 10:01:37;;;;;;;4.13;0.80;;;;;;;7.12;100.00;102381.19;10378980;28;20045;-71
2023/04/02 10:06:38;;;;;;;1.70;0.57;;;;;;;7.43;100.00;102387.19;10395269;28;20041;-71
2023/04/02 10:11:38;;;;;;;4.43;0.77;;;;;;;7.88;100.00;102395.19;10378907;28;20037;-71
2023/04/02 10:16:44;;;;;;;7.15;1.10;;;;;;;7.98;100.00;102383.84;10361682;28;20041;-71
2023/04/02 10:21:46;;;;;;;4.32;1.13;;;;;;;8.56;100.00;102392.69;10379929;28;20053;-71
2023/04/02 10:27:01;;;;;;;6.25;0.80;;;;;;;8.56;100.00;102389.06;10396184;28;20033;-70
2023/04/02 10:32:15;;;;;;;3.13;0.93;;;;;;;8.15;100.00;102366.03;10395209;28;20037;-71
2023/04/02 10:37:34;;;;;;;3.17;0.65;;;;;;;8.24;100.00;102395.00;10411955;28;20045;-70
2023/04/02 10:42:38;;;;;;;1.25;0.52;;;;;;;8.47;100.00;102402.13;10405691;28;20137;-71
2023/04/02 10:47:44;;;;;;;4.55;0.85;;;;;;;8.85;100.00;102398.94;10338478;28;20052;-70
2023/04/02 10:52:52;;;;;;;3.63;0.70;;;;;;;9.04;100.00;102384.41;10371208;28;20074;-71
2023/04/02 10:57:53;;;;;;;3.40;1.20;;;;;;;9.31;100.00;102395.47;10337404;28;20038;-71
2023/04/02 11:03:01;;;;;;;3.05;1.00;;;;;;;9.44;100.00;102406.47;10348400;28;20049;-71
2023/04/02 11:08:17;;;;;;;4.05;1.02;;;;;;;9.79;100.00;102419.19;10410746;28;20045;-72
2023/04/02 11:13:30;;;;;;;3.92;0.80;;;;;;;9.96;100.00;102416.84;10395701;28;20041;-69
2023/04/02 11:18:34;;;;;;;3.92;0.70;;;;;;;10.75;100.00;102420.53;10394440;28;20061;-71
2023/04/02 11:23:39;;;;;;;2.30;0.60;;;;;;;11.02;100.00;102440.59;10377108;28;20140;-72
2023/04/02 11:28:40;;;;;;;2.72;0.60;;;;;;;10.84;100.00;102447.63;10394241;28;20049;-72
2023/04/02 11:33:40;;;;;;;3.00;0.50;;;;;;;11.05;100.00;102459.41;10410216;28;20033;-71
2023/04/02 11:38:45;;;;;;;1.55;0.60;;;;;;;10.97;100.00;102455.00;10394407;28;20485;-72
2023/04/02 11:43:46;;;;;;;5.32;0.75;;;;;;;11.00;100.00;102449.06;10412363;28;20076;-73
2023/04/02 11:48:47;;;;;;;2.63;0.70;;;;;;;10.97;100.00;102448.63;10368287;28;20084;-71
2023/04/02 11:53:48;;;;;;;4.47;0.90;;;;;;;11.50;97.12;102454.72;10353452;28;20037;-71
2023/04/02 11:59:06;;;;;;;2.25;0.65;;;;;;;12.14;96.63;102460.22;10320886;28;20045;-72
2023/04/02 12:04:16;;;;;;;2.45;0.50;;;;;;;12.92;95.46;102467.91;10370298;28;20076;-71
2023/04/02 12:09:24;;;;;;;4.32;0.73;;;;;;;13.29;92.43;102447.66;10381261;28;20048;-72
2023/04/02 12:14:31;;;;;;;2.55;0.50;;;;;;;13.44;87.84;102463.84;10364868;28;20053;-72
2023/04/02 12:19:32;;;;;;;1.63;0.50;;;;;;;13.78;85.03;102453.94;10397520;28;20125;-72
2023/04/02 12:24:32;;;;;;;1.58;0.43;;;;;;;14.19;82.92;102454.16;10370695;28;20497;-71
2023/04/02 12:29:33;;;;;;;1.42;0.50;;;;;;;14.15;80.26;102462.06;10386936;28;20038;-72
2023/04/02 12:34:33;;;;;;;3.13;0.63;;;;;;;14.71;77.66;102459.81;10395864;28;20049;-71
2023/04/02 12:39:34;;;;;;;0.88;0.47;;;;;;;15.39;76.72;102469.25;10399748;28;20049;-71
2023/04/02 12:44:34;;;;;;;0.90;0.50;;;;;;;15.66;73.31;102458.38;10365005;28;20049;-72
2023/04/02 12:49:39;;;;;;;3.17;0.52;;;;;;;15.49;70.30;102463.91;10431860;28;20048;-71
2023/04/02 12:54:44;;;;;;;3.72;1.48;;;;;;;15.73;69.27;102466.59;10432290;28;20049;-72
2023/04/02 12:59:44;;;;;;;1.55;0.63;;;;;;;15.88;68.89;102466.84;10399158;28;20123;-72
2023/04/02 13:04:52;;;;;;;1.55;0.47;;;;;;;15.87;67.15;102470.69;10417300;28;20416;-71
2023/04/02 13:09:53;;;;;;;1.88;0.60;;;;;;;16.11;66.07;102467.78;10386161;28;20038;-72
2023/04/02 13:14:55;;;;;;;3.63;0.85;;;;;;;16.20;64.63;102471.81;10373344;28;20049;-71
2023/04/02 13:19:55;;;;;;;1.13;0.50;;;;;;;16.43;63.74;102464.38;10357890;28;20038;-70
2023/04/02 13:24:56;;;;;;;3.22;0.80;;;;;;;16.44;61.38;102468.84;10357267;28;20069;-70
2023/04/02 13:29:57;;;;;;;1.65;0.47;;;;;;;16.44;62.55;102477.19;10405976;28;20041;-70
2023/04/02 13:34:57;;;;;;;3.55;0.50;;;;;;;15.55;63.99;102478.72;10382290;28;20034;-70
2023/04/02 13:39:58;;;;;;;1.80;0.60;;;;;;;16.54;64.24;102496.81;10413555;28;20033;-71
2023/04/02 13:44:58;;;;;;;2.47;0.57;;;;;;;16.69;60.42;102483.13;10413387;28;20045;-71
2023/04/02 13:49:58;;;;;;;1.75;0.60;;;;;;;16.63;60.06;102478.59;10380714;28;20045;-71
2023/04/02 13:55:00;;;;;;;2.30;0.60;;;;;;;15.86;62.11;102484.88;10412932;28;20037;-71
2023/04/02 14:00:01;;;;;;;1.60;0.50;;;;;;;15.89;63.80;102493.50;10397140;28;20060;-71
2023/04/02 14:05:26;;;;;;;1.48;1.02;;;;;;;17.00;62.28;102486.34;10381248;28;20037;-70
2023/04/02 14:10:49;;;;;;;1.58;0.90;;;;;;;17.03;59.65;102493.34;10396917;28;20049;-72
2023/04/02 14:16:03;;;;;;;1.80;0.68;;;;;;;17.14;60.94;102496.00;10379083;28;20603;-72
2023/04/02 14:21:18;;;;;;;2.22;0.55;;;;;;;17.84;58.57;102493.44;10364439;28;20041;-71
2023/04/02 14:26:28;;;;;;;1.52;0.65;;;;;;;17.80;56.47;102495.06;10399037;28;20071;-71
2023/04/02 14:32:03;;;;;;;2.47;0.50;;;;;;;17.54;55.37;102492.00;10407539;28;20038;-70
2023/04/02 14:37:25;;;;;;;2.35;0.65;;;;;;;17.30;54.90;102496.16;10380666;28;20061;-71
2023/04/02 14:42:26;;;;;;;1.27;0.57;;;;;;;17.83;55.52;102510.44;10375252;28;20064;-72
2023/04/02 14:47:38;;;;;;;1.80;0.73;;;;;;;17.14;54.49;102501.56;10413408;28;20052;-71
2023/04/02 14:52:40;;;;;;;1.38;0.77;;;;;;;17.38;55.25;102517.97;10395646;28;20033;-71
2023/04/02 14:57:47;;;;;;;1.27;0.70;;;;;;;17.84;53.70;102512.09;10394109;28;20037;-71
2023/04/02 15:02:51;;;;;;;1.83;0.57;;;;;;;17.50;52.60;102507.53;10376118;28;20092;-72
2023/04/02 15:08:08;;;;;;;1.88;0.70;;;;;;;17.87;54.61;102515.19;10393652;28;20049;-71
2023/04/02 15:13:13;;;;;;;1.30;0.60;;;;;;;17.66;52.20;102507.72;10377623;28;20038;-72
2023/04/02 15:18:15;;;;;;;4.50;1.23;;;;;;;17.28;52.19;102503.94;10395201;28;20082;-72
2023/04/02 15:23:22;;;;;;;3.13;0.75;;;;;;;16.15;52.25;102521.75;10394340;28;20037;-72
2023/04/02 15:28:31;;;;;;;1.52;0.60;;;;;;;16.09;53.26;102525.53;10411101;28;20033;-72
2023/04/02 15:33:58;;;;;;;1.55;0.55;;;;;;;16.52;52.62;102518.47;10394600;28;20513;-71
2023/04/02 15:38:59;;;;;;;;;;;;;;;16.52;51.88;102540.72;10394961;28;20052;-71
2023/04/02 15:44:08;;;;;;;1.15;0.47;;;;;;;16.20;52.17;102546.00;10416789;28;19928;-72
2023/04/02 15:49:31;;;;;;;1.92;0.50;;;;;;;16.12;51.38;102548.13;10419044;28;20306;-71
2023/04/02 15:54:55;;;;;;;0.90;0.60;;;;;;;16.81;51.28;102560.94;10418567;28;20128;-72
2023/04/02 16:00:29;;;;;;;2.35;0.55;;;;;;;16.50;50.45;102559.59;10411755;28;20064;-72
2023/04/02 16:05:38;;;;;;;1.60;0.60;;;;;;;16.51;50.64;102561.25;10396165;28;20037;-72
2023/04/02 16:10:39;;;;;;;3.38;0.63;;;;;;;16.22;50.68;102561.31;10415964;28;20110;-72
2023/04/02 16:15:42;;;;;;;3.35;0.77;;;;;;;15.68;51.15;102556.13;10367104;28;20085;-71
2023/04/02 16:20:45;;;;;;;2.25;0.73;;;;;;;14.43;52.78;102582.47;10399851;28;20061;-71
2023/04/02 16:26:00;;;;;;;2.03;0.60;;;;;;;14.88;53.23;102601.31;10400137;28;20033;-71
2023/04/02 16:31:13;;;;;;;1.50;0.43;;;;;;;14.97;51.54;102574.06;10416010;28;20413;-72
2023/04/02 16:36:41;;;;;;;1.10;0.50;;;;;;;13.87;52.66;102610.34;10398760;28;20040;-71
2023/04/02 16:42:03;;;;;;;0.95;0.60;;;;;;;12.37;54.23;102616.16;10416017;28;20075;-72
2023/04/02 16:47:09;;;;;;;2.53;0.60;;;;;;;11.58;57.62;102637.59;10415300;28;20414;-72
2023/04/02 16:52:25;;;;;;;1.92;0.80;;;;;;;10.81;57.68;102642.81;10416831;28;20068;-72
2023/04/02 16:57:47;;;;;;;1.15;0.60;;;;;;;10.19;60.60;102673.25;10415742;28;20048;-72
2023/04/02 17:03:15;;;;;;;2.13;0.40;;;;;;;9.50;61.87;102688.81;10415777;28;20045;-73
2023/04/02 17:08:26;;;;;;;2.53;1.67;;;;;;;8.75;63.00;102695.03;10413966;28;20112;-72
2023/04/02 17:13:46;;;;;;;2.20;0.63;;;;;;;8.37;65.32;102700.75;10398907;28;20554;-72
2023/04/02 17:18:48;;;;;;;0.98;0.47;;;;;;;8.08;65.19;102719.00;10396897;28;20083;-72
2023/04/02 17:23:50;;;;;;;2.95;0.50;;;;;;;7.86;66.75;102729.91;10366399;28;20116;-72
2023/04/02 17:28:51;;;;;;;3.38;0.60;;;;;;;7.59;68.03;102749.78;10404222;28;20044;-72
2023/04/02 17:33:52;;;;;;;1.50;0.80;;;;;;;7.26;66.07;102730.97;10379420;28;20048;-71
2023/04/02 17:38:55;;;;;;;4.65;0.40;;;;;;;7.20;67.78;102737.19;10365348;28;20033;-74
2023/04/02 17:44:14;;;;;;;0.95;0.40;;;;;;;7.01;67.94;102750.34;10428851;28;20091;-74
2023/04/02 17:49:24;;;;;;;1.52;0.60;;;;;;;6.84;68.53;102760.59;10386954;28;20041;-72
2023/04/02 17:54:41;;;;;;;2.08;0.70;;;;;;;6.68;71.66;102782.63;10410860;28;20033;-71
2023/04/02 18:00:20;;;;;;;1.63;0.88;;;;;;;6.54;73.08;102792.44;10412939;28;20056;-73
2023/04/02 18:05:45;;;;;;;2.35;0.68;;;;;;;6.33;74.09;102794.97;10392590;28;20105;-74
2023/04/02 18:11:13;;;;;;;1.77;0.80;;;;;;;6.21;75.58;102814.50;10392318;28;20037;-73
2023/04/02 18:16:23;;;;;;;0.93;0.40;;;;;;;6.03;76.45;102813.91;10416730;28;20086;-71
2023/04/02 18:21:54;;;;;;;2.58;0.80;;;;;;;5.90;76.19;102827.25;10408561;28;20038;-73
2023/04/02 18:27:11;;;;;;;3.45;1.10;;;;;;;5.63;76.91;102822.00;10411436;28;20038;-72
2023/04/02 18:32:23;;;;;;;3.10;0.95;;;;;;;5.60;78.87;102854.28;10408370;28;20040;-72
2023/04/02 18:37:37;;;;;;;2.97;0.80;;;;;;;5.45;80.08;102854.97;10404891;28;20100;-72
2023/04/02 18:42:58;;;;;;;3.83;0.93;;;;;;;5.31;81.57;102872.03;10410504;28;20117;-72
2023/04/02 18:48:21;;;;;;;3.05;0.70;;;;;;;5.17;81.68;102881.78;10411974;28;20056;-71
2023/04/02 18:53:23;;;;;;;1.50;0.93;;;;;;;5.09;82.60;102900.88;10392748;28;20140;-71
2023/04/02 18:58:29;;;;;;;2.72;0.90;;;;;;;5.06;83.77;102906.66;10413054;28;20033;-72
2023/04/02 19:03:36;;;;;;;5.07;0.80;;;;;;;4.99;84.07;102903.75;10355072;28;20620;-73
2023/04/02 19:08:41;;;;;;;1.67;0.73;;;;;;;4.89;85.81;102911.25;10390309;28;20277;-72
2023/04/02 19:13:43;;;;;;;0.70;0.50;;;;;;;4.72;85.66;102907.63;10394012;28;20099;-72
2023/04/02 19:18:54;;;;;;;1.05;0.65;;;;;;;4.75;85.98;102925.53;10396187;28;20072;-71
2023/04/02 19:23:59;;;;;;;1.92;0.80;;;;;;;4.60;87.65;102923.44;10414570;28;20038;-72
2023/04/02 19:29:06;;;;;;;2.10;1.02;;;;;;;4.61;89.09;102940.66;10404521;28;20045;-72
2023/04/02 19:34:36;;;;;;;3.63;0.90;;;;;;;4.54;91.82;102950.50;10418837;28;20114;-71
2023/04/02 19:39:59;;;;;;;1.63;0.68;;;;;;;4.44;93.75;102950.63;10401088;28;20075;-72
2023/04/02 19:44:59;;;;;;;1.77;1.00;;;;;;;4.35;96.68;102967.97;10416130;28;20033;-71
2023/04/02 19:50:00;;;;;;;4.25;0.70;;;;;;;4.28;99.35;102984.13;10386887;28;20033;-72
2023/04/02 19:55:00;;;;;;;1.77;0.82;;;;;;;4.23;100.00;102976.41;10416874;28;20041;-72
2023/04/02 20:00:01;;;;;;;2.42;0.90;;;;;;;4.12;100.00;102984.03;10417066;28;20030;-72
2023/04/02 20:05:01;;;;;;;4.43;1.05;;;;;;;4.07;100.00;102986.34;10365322;28;20046;-71
2023/04/02 20:10:02;;;;;;;1.75;0.68;;;;;;;3.96;100.00;102998.38;10373713;28;20060;-72
2023/04/02 20:15:03;;;;;;;1.75;0.82;;;;;;;3.90;100.00;103002.59;10386210;28;20034;-72
2023/04/02 20:20:04;;;;;;;1.65;0.80;;;;;;;3.72;100.00;103008.06;10416018;28;20045;-72
2023/04/02 20:25:05;;;;;;;4.18;0.98;;;;;;;3.66;100.00;103005.97;10360112;28;20107;-78
2023/04/02 20:30:06;;;;;;;6.07;0.95;;;;;;;3.64;100.00;103024.34;10353617;28;20084;-77
2023/04/02 20:35:07;;;;;;;4.75;1.85;;;;;;;3.48;100.00;103024.19;10354956;28;20034;-78
2023/04/02 20:40:09;;;;;;;2.42;1.10;;;;;;;3.37;100.00;103034.28;10337699;28;20030;-78
2023/04/02 20:45:10;;;;;;;2.10;0.93;;;;;;;3.34;100.00;103050.91;10332453;28;20039;-77
2023/04/02 20:50:10;;;;;;;1.77;0.98;;;;;;;3.22;100.00;103035.78;10338095;28;20117;-78
2023/04/02 20:55:11;;;;;;;4.35;1.25;;;;;;;3.19;100.00;103052.44;10337282;28;20053;-78
2023/04/02 21:00:12;;;;;;;3.83;1.08;;;;;;;3.09;100.00;103068.81;10338571;28;20026;-77
2023/04/02 21:05:12;;;;;;;4.63;1.30;;;;;;;2.96;100.00;103066.44;10338240;28;20080;-78
2023/04/02 21:10:13;;;;;;;3.55;1.48;;;;;;;2.89;100.00;103078.91;10328833;28;20527;-78
2023/04/02 21:15:13;;;;;;;3.63;1.50;;;;;;;2.82;100.00;103095.00;10350228;28;20080;-78
2023/04/02 21:20:14;;;;;;;2.90;1.00;;;;;;;2.69;100.00;103080.00;10369222;28;20029;-77
2023/04/02 21:25:15;;;;;;;4.45;1.15;;;;;;;2.71;100.00;103094.31;10351883;28;20040;-77
2023/04/02 21:30:15;;;;;;;1.85;0.90;;;;;;;2.65;100.00;103108.50;10353488;28;20045;-77
2023/04/02 21:35:16;;;;;;;2.17;0.70;;;;;;;2.55;100.00;103109.38;10336739;28;20041;-77
2023/04/02 21:40:16;;;;;;;1.75;0.80;;;;;;;2.44;100.00;103101.41;10335159;28;20104;-77
2023/04/02 21:45:17;;;;;;;2.10;0.70;;;;;;;2.42;100.00;103114.28;10352107;28;20393;-77
2023/04/02 21:50:17;;;;;;;1.58;1.00;;;;;;;2.31;100.00;103111.72;10351985;28;20065;-77
2023/04/02 21:55:18;;;;;;;1.95;0.70;;;;;;;2.25;100.00;103128.59;10351155;28;20034;-77
2023/04/02 22:00:18;;;;;;;3.00;1.20;;;;;;;2.22;100.00;103140.63;10320511;28;20050;-76
2023/04/02 22:05:20;;;;;;;2.92;0.80;;;;;;;2.08;100.00;103122.88;10351402;28;20076;-77
2023/04/02 22:10:20;;;;;;;3.92;1.42;;;;;;;2.04;100.00;103132.31;10339261;28;20109;-76
2023/04/02 22:15:21;;;;;;;4.72;1.65;;;;;;;1.83;100.00;103118.84;10337835;28;20060;-77
2023/04/02 22:20:21;;;;;;;3.00;1.20;;;;;;;1.93;100.00;103151.47;10334782;28;20034;-77
2023/04/02 22:25:22;;;;;;;4.32;1.05;;;;;;;1.89;100.00;103150.88;10350236;28;20509;-77
2023/04/02 22:30:25;;;;;;;1.35;0.60;;;;;;;1.81;100.00;103148.03;10327069;28;20100;-78
2023/04/02 22:35:25;;;;;;;1.75;0.65;;;;;;;1.70;100.00;103140.84;10358293;28;20057;-77
2023/04/02 22:40:26;;;;;;;5.97;1.63;;;;;;;1.59;100.00;103140.97;10376549;28;20071;-77
2023/04/02 22:45:26;;;;;;;1.65;0.65;;;;;;;1.50;100.00;103144.53;10376192;28;20038;-78
2023/04/02 22:50:27;;;;;;;0.98;0.50;;;;;;;1.41;100.00;103147.06;10347326;28;20041;-77
2023/04/02 22:55:27;;;;;;;1.73;0.63;;;;;;;1.41;100.00;103163.34;10393068;28;20049;-78
2023/04/02 23:00:28;;;;;;;3.28;0.82;;;;;;;1.27;100.00;103154.72;10361553;28;20043;-78
2023/04/02 23:05:28;;;;;;;4.60;1.00;;;;;;;1.27;100.00;103160.16;10351075;28;20119;-78
2023/04/02 23:10:29;;;;;;;0.80;0.40;;;;;;;1.29;100.00;103179.88;10368249;28;20042;-78
2023/04/02 23:15:29;;;;;;;1.33;0.47;;;;;;;1.24;100.00;103177.59;10359480;28;20053;-78
2023/04/02 23:20:30;;;;;;;1.75;0.45;;;;;;;1.15;100.00;103172.94;10368351;28;20037;-78
2023/04/02 23:25:30;;;;;;;1.90;0.57;;;;;;;1.08;100.00;103177.22;10353664;28;20056;-77
2023/04/02 23:30:31;;;;;;;0.95;0.52;;;;;;;1.00;100.00;103183.31;10355748;28;20452;-77